createdAt,value
2022-12-20T00:01:33.234Z,9.60
2022-12-20T00:04:08.525Z,9.60
2022-12-20T00:06:36.817Z,9.60
2022-12-20T00:09:06.967Z,9.60
2022-12-20T00:11:34.563Z,9.60
2022-12-20T00:14:01.557Z,9.60
2022-12-20T00:16:30.727Z,9.60
2022-12-20T00:19:00.928Z,9.60
2022-12-20T00:21:29.771Z,9.50
2022-12-20T00:23:57.440Z,9.50
2022-12-20T00:26:30.485Z,9.50
2022-12-20T00:28:57.820Z,9.50
2022-12-20T00:31:27.161Z,9.50
2022-12-20T00:33:56.718Z,9.50
2022-12-20T00:36:27.158Z,9.50
2022-12-20T00:38:56.320Z,9.50
2022-12-20T00:41:30.842Z,9.60
2022-12-20T00:43:57.920Z,9.60
2022-12-20T00:46:25.244Z,9.60
2022-12-20T00:48:54.786Z,9.60
2022-12-20T00:51:28.298Z,9.60
2022-12-20T00:53:56.098Z,9.60
2022-12-20T00:56:23.174Z,9.60
2022-12-20T00:58:53.503Z,9.70
2022-12-20T01:01:27.090Z,9.70
2022-12-20T01:03:54.684Z,9.70
2022-12-20T01:06:23.495Z,9.70
2022-12-20T01:08:51.093Z,9.80
2022-12-20T01:11:24.908Z,9.90
2022-12-20T01:13:56.278Z,9.90
2022-12-20T01:16:32.847Z,10.00
2022-12-20T01:19:00.902Z,10.00
2022-12-20T01:21:28.772Z,10.10
2022-12-20T01:23:56.638Z,10.10
2022-12-20T01:26:28.610Z,10.20
2022-12-20T01:28:59.360Z,10.20
2022-12-20T01:31:27.967Z,10.30
2022-12-20T01:33:55.143Z,10.30
2022-12-20T01:36:32.560Z,10.30
2022-12-20T01:39:03.552Z,10.30
2022-12-20T01:41:33.115Z,10.30
2022-12-20T01:44:18.088Z,10.30
2022-12-20T01:46:49.815Z,10.30
2022-12-20T01:49:31.114Z,10.40
2022-12-20T01:52:08.855Z,10.40
2022-12-20T01:54:50.591Z,10.40
2022-12-20T01:57:43.858Z,10.40
2022-12-20T02:00:11.721Z,10.40
2022-12-20T02:02:42.590Z,10.40
2022-12-20T02:05:11.540Z,10.40
2022-12-20T02:07:39.023Z,10.40
2022-12-20T02:10:08.007Z,10.40
2022-12-20T02:12:45.379Z,10.40
2022-12-20T02:15:59.038Z,10.40
2022-12-20T02:19:30.291Z,10.40
2022-12-20T02:23:00.015Z,10.40
2022-12-20T02:25:46.130Z,10.40
2022-12-20T02:29:09.504Z,10.40
2022-12-20T02:32:07.360Z,10.40
2022-12-20T02:34:36.977Z,10.40
2022-12-20T02:37:04.635Z,10.40
2022-12-20T02:39:33.753Z,10.50
2022-12-20T02:42:09.764Z,10.50
2022-12-20T02:45:01.423Z,10.50
2022-12-20T02:47:39.071Z,10.50
2022-12-20T02:50:08.989Z,10.50
2022-12-20T02:52:37.548Z,10.50
2022-12-20T02:55:06.583Z,10.50
2022-12-20T02:58:00.599Z,10.60
2022-12-20T03:00:34.683Z,10.50
2022-12-20T03:03:20.902Z,10.60
2022-12-20T03:05:56.352Z,10.60
2022-12-20T03:08:25.148Z,10.60
2022-12-20T03:10:54.958Z,10.60
2022-12-20T03:13:24.162Z,10.70
2022-12-20T03:16:02.437Z,10.70
2022-12-20T03:18:29.399Z,10.80
2022-12-20T03:20:56.687Z,10.80
2022-12-20T03:23:24.143Z,10.90
2022-12-20T03:25:51.484Z,10.90
2022-12-20T03:28:33.889Z,10.90
2022-12-20T03:31:00.991Z,11.00
2022-12-20T03:33:28.315Z,10.90
2022-12-20T03:35:58.832Z,11.00
2022-12-20T03:38:25.734Z,11.00
2022-12-20T03:40:52.776Z,11.00
2022-12-20T03:43:21.916Z,11.00
2022-12-20T03:45:48.986Z,11.00
2022-12-20T03:48:15.940Z,11.00
2022-12-20T03:50:42.903Z,11.00
2022-12-20T03:53:10.043Z,11.10
2022-12-20T03:55:37.549Z,11.10
2022-12-20T03:58:04.551Z,11.10
2022-12-20T04:00:34.901Z,11.10
2022-12-20T04:03:24.423Z,11.10
2022-12-20T04:05:52.014Z,11.10
2022-12-20T04:08:18.950Z,11.10
2022-12-20T04:11:06.541Z,11.10
2022-12-20T04:13:36.320Z,11.10
2022-12-20T04:16:04.043Z,11.20
2022-12-20T04:18:32.956Z,11.20
2022-12-20T04:21:01.963Z,11.20
2022-12-20T04:23:31.105Z,11.20
2022-12-20T04:25:58.904Z,11.20
2022-12-20T04:28:26.093Z,11.20
2022-12-20T04:30:54.470Z,11.10
2022-12-20T04:33:26.391Z,11.10
2022-12-20T04:35:54.853Z,11.10
2022-12-20T04:38:23.685Z,11.10
2022-12-20T04:40:54.882Z,11.10
2022-12-20T04:43:24.300Z,11.00
2022-12-20T04:45:56.275Z,11.10
2022-12-20T04:51:14.075Z,11.10
2022-12-20T04:53:47.884Z,11.00
2022-12-20T04:56:29.299Z,11.10
2022-12-20T04:59:03.299Z,11.10
2022-12-20T05:01:31.265Z,11.10
2022-12-20T05:03:58.409Z,11.00
2022-12-20T05:06:29.847Z,11.00
2022-12-20T05:08:57.019Z,11.00
2022-12-20T05:11:25.015Z,11.00
2022-12-20T05:13:52.452Z,11.00
2022-12-20T05:16:21.372Z,10.90
2022-12-20T05:18:49.497Z,10.90
2022-12-20T05:21:36.066Z,10.90
2022-12-20T05:24:23.111Z,10.90
2022-12-20T05:26:59.685Z,10.90
2022-12-20T05:29:28.043Z,10.90
2022-12-20T05:31:55.686Z,10.80
2022-12-20T05:34:23.066Z,10.80
2022-12-20T05:36:53.249Z,10.90
2022-12-20T05:39:22.322Z,10.80
2022-12-20T05:41:53.623Z,10.80
2022-12-20T05:44:23.007Z,10.80
2022-12-20T05:46:52.686Z,10.80
2022-12-20T05:49:25.724Z,10.80
2022-12-20T05:51:53.797Z,10.90
2022-12-20T05:54:25.647Z,10.90
2022-12-20T05:57:04.582Z,10.80
2022-12-20T05:59:37.795Z,10.80
2022-12-20T06:02:07.997Z,10.80
2022-12-20T06:04:36.983Z,10.80
2022-12-20T06:07:10.848Z,10.80
2022-12-20T06:09:38.149Z,10.80
2022-12-20T06:12:09.098Z,10.80
2022-12-20T06:14:36.371Z,10.80
2022-12-20T06:17:03.456Z,10.80
2022-12-20T06:19:32.123Z,10.90
2022-12-20T06:22:01.090Z,10.90
2022-12-20T06:24:39.482Z,10.90
2022-12-20T06:27:09.938Z,11.00
2022-12-20T06:29:38.801Z,11.00
2022-12-20T06:32:09.997Z,11.00
2022-12-20T06:34:38.664Z,11.00
2022-12-20T06:37:05.731Z,11.00
2022-12-20T06:39:34.831Z,11.00
2022-12-20T06:42:06.965Z,11.00
2022-12-20T06:44:35.597Z,11.00
2022-12-20T06:47:03.798Z,11.00
2022-12-20T06:49:30.948Z,11.00
2022-12-20T06:51:59.024Z,11.00
2022-12-20T06:54:35.420Z,10.90
2022-12-20T06:57:02.849Z,10.90
2022-12-20T06:59:30.182Z,10.90
2022-12-20T07:01:57.311Z,10.90
2022-12-20T07:04:25.964Z,10.90
2022-12-20T07:06:52.925Z,10.90
2022-12-20T07:09:19.840Z,10.80
2022-12-20T07:11:46.869Z,10.80
2022-12-20T07:14:13.764Z,10.80
2022-12-20T07:16:43.346Z,10.80
2022-12-20T07:19:13.748Z,10.80
2022-12-20T07:21:40.869Z,10.80
2022-12-20T07:24:08.587Z,10.80
2022-12-20T07:26:36.335Z,10.80
2022-12-20T07:29:04.438Z,10.80
2022-12-20T07:31:31.435Z,10.80
2022-12-20T07:34:00.829Z,10.80
2022-12-20T07:36:27.832Z,10.80
2022-12-20T07:38:54.839Z,10.90
2022-12-20T07:41:22.495Z,10.90
2022-12-20T07:43:49.460Z,10.90
2022-12-20T07:46:17.930Z,10.90
2022-12-20T07:48:45.954Z,10.90
2022-12-20T07:51:28.399Z,10.90
2022-12-20T07:54:11.880Z,10.90
2022-12-20T07:56:44.677Z,10.90
2022-12-20T07:59:16.572Z,10.90
2022-12-20T08:01:45.677Z,10.90
2022-12-20T08:04:21.558Z,10.90
2022-12-20T08:06:50.956Z,10.90
2022-12-20T08:09:18.755Z,10.90
2022-12-20T08:11:49.030Z,10.90
2022-12-20T08:14:18.725Z,10.90
2022-12-20T08:16:46.509Z,10.90
2022-12-20T08:19:13.488Z,10.90
2022-12-20T08:21:40.415Z,10.90
2022-12-20T08:24:08.267Z,10.90
2022-12-20T08:26:42.303Z,10.90
2022-12-20T08:29:10.529Z,10.80
2022-12-20T08:31:43.127Z,10.70
2022-12-20T08:34:14.726Z,10.60
2022-12-20T08:36:41.652Z,10.60
2022-12-20T08:39:08.663Z,10.50
2022-12-20T08:41:37.471Z,10.50
2022-12-20T08:44:05.939Z,10.50
2022-12-20T08:46:33.099Z,10.50
2022-12-20T08:49:00.181Z,10.50
2022-12-20T08:51:27.247Z,10.60
2022-12-20T08:53:54.307Z,10.60
2022-12-20T08:56:21.509Z,10.60
2022-12-20T08:58:49.012Z,10.60
2022-12-20T09:01:19.187Z,10.60
2022-12-20T09:03:47.456Z,10.50
2022-12-20T09:06:20.590Z,10.60
2022-12-20T09:08:48.781Z,10.60
2022-12-20T09:11:24.092Z,10.60
2022-12-20T09:13:56.446Z,10.70
2022-12-20T09:16:27.516Z,10.70
2022-12-20T09:19:04.659Z,10.70
2022-12-20T09:21:33.624Z,10.70
2022-12-20T09:24:00.654Z,10.80
2022-12-20T09:26:27.676Z,10.80
2022-12-20T09:28:55.405Z,10.80
2022-12-20T09:31:27.312Z,10.70
2022-12-20T09:33:58.299Z,10.80
2022-12-20T09:36:27.848Z,10.80
2022-12-20T09:38:56.381Z,10.90
2022-12-20T09:41:39.664Z,10.90
2022-12-20T09:44:33.941Z,10.90
2022-12-20T09:47:10.749Z,10.90
2022-12-20T09:49:42.992Z,11.00
2022-12-20T09:52:27.545Z,11.00
2022-12-20T09:54:59.962Z,11.10
2022-12-20T09:57:53.819Z,11.20
2022-12-20T10:00:21.546Z,11.20
2022-12-20T10:03:09.858Z,11.20
2022-12-20T10:06:05.538Z,11.30
2022-12-20T10:08:43.303Z,11.50
2022-12-20T10:11:58.272Z,11.60
2022-12-20T10:14:31.022Z,11.70
2022-12-20T10:17:32.761Z,11.80
2022-12-20T10:20:12.321Z,11.90
2022-12-20T10:22:56.126Z,12.00
2022-12-20T10:25:30.652Z,12.00
2022-12-20T10:27:58.292Z,12.00
2022-12-20T10:30:27.856Z,12.00
2022-12-20T10:32:57.946Z,12.00
2022-12-20T10:35:31.347Z,12.00
2022-12-20T10:38:09.907Z,12.00
2022-12-20T10:41:19.956Z,12.00
2022-12-20T10:43:46.548Z,12.00
2022-12-20T10:46:18.819Z,12.00
2022-12-20T10:48:48.368Z,12.00
2022-12-20T10:51:22.174Z,12.00
2022-12-20T10:54:03.811Z,12.00
2022-12-20T10:56:35.016Z,12.10
2022-12-20T10:59:15.735Z,12.10
2022-12-20T11:01:47.325Z,12.10
2022-12-20T11:04:38.695Z,12.20
2022-12-20T11:07:27.358Z,12.20
2022-12-20T11:10:20.455Z,12.30
2022-12-20T11:12:54.499Z,12.50
2022-12-20T11:15:36.542Z,12.50
2022-12-20T11:18:15.355Z,12.50
2022-12-20T11:21:04.306Z,12.50
2022-12-20T11:23:42.571Z,12.50
2022-12-20T11:26:42.302Z,12.40
2022-12-20T11:29:42.873Z,12.50
2022-12-20T11:33:28.179Z,12.50
2022-12-20T11:36:27.809Z,12.50
2022-12-20T11:39:14.609Z,12.50
2022-12-20T11:41:55.462Z,12.50
2022-12-20T11:44:52.043Z,12.50
2022-12-20T11:47:53.714Z,12.50
2022-12-20T11:51:01.977Z,12.50
2022-12-20T11:53:51.030Z,12.50
2022-12-20T11:56:38.589Z,12.50
2022-12-20T11:59:35.058Z,12.50
2022-12-20T12:02:22.419Z,12.60
2022-12-20T12:05:00.108Z,12.60
2022-12-20T12:07:34.392Z,12.60
2022-12-20T12:10:20.230Z,12.60
2022-12-20T12:13:17.255Z,12.60
2022-12-20T12:16:06.696Z,12.60
2022-12-20T12:18:36.267Z,12.60
2022-12-20T12:21:18.221Z,12.60
2022-12-20T12:23:45.088Z,12.60
2022-12-20T12:26:28.085Z,12.60
2022-12-20T12:28:59.178Z,12.70
2022-12-20T12:31:53.889Z,12.70
2022-12-20T12:34:55.287Z,12.70
2022-12-20T12:37:50.714Z,12.70
2022-12-20T12:40:51.981Z,12.70
2022-12-20T12:43:55.011Z,12.60
2022-12-20T12:46:30.626Z,12.60
2022-12-20T12:49:18.512Z,12.60
2022-12-20T12:51:54.317Z,12.50
2022-12-20T12:54:41.405Z,12.50
2022-12-20T12:57:18.495Z,12.40
2022-12-20T12:59:48.631Z,12.40
2022-12-20T13:02:16.408Z,12.40
2022-12-20T13:05:04.686Z,12.40
2022-12-20T13:07:37.214Z,12.30
2022-12-20T13:10:10.158Z,12.30
2022-12-20T13:12:40.078Z,12.30
2022-12-20T13:15:21.997Z,12.30
2022-12-20T13:18:01.007Z,12.30
2022-12-20T13:20:34.041Z,12.30
2022-12-20T13:23:10.331Z,12.30
2022-12-20T13:25:49.168Z,12.20
2022-12-20T13:28:19.474Z,12.20
2022-12-20T13:31:09.891Z,12.30
2022-12-20T13:33:51.704Z,12.20
2022-12-20T13:36:34.100Z,12.30
2022-12-20T13:39:25.243Z,12.20
2022-12-20T13:42:22.842Z,12.20
2022-12-20T13:44:53.035Z,12.20
2022-12-20T13:47:25.920Z,12.20
2022-12-20T13:49:52.969Z,12.10
2022-12-20T13:52:31.195Z,12.10
2022-12-20T13:55:07.602Z,12.10
2022-12-20T13:57:46.110Z,12.00
2022-12-20T14:00:18.531Z,11.90
2022-12-20T14:02:46.437Z,11.80
2022-12-20T14:05:41.787Z,11.80
2022-12-20T14:08:16.530Z,11.70
2022-12-20T14:10:43.471Z,11.70
2022-12-20T14:13:24.219Z,11.70
2022-12-20T14:15:51.943Z,11.70
2022-12-20T14:18:21.461Z,11.70
2022-12-20T14:20:55.964Z,11.60
2022-12-20T14:23:29.690Z,11.60
2022-12-20T14:26:02.412Z,11.60
2022-12-20T14:28:37.914Z,11.60
2022-12-20T14:31:07.658Z,11.60
2022-12-20T14:33:37.782Z,11.60
2022-12-20T14:36:16.717Z,11.60
2022-12-20T14:38:56.512Z,11.60
2022-12-20T14:41:35.897Z,11.60
2022-12-20T14:44:24.274Z,11.60
2022-12-20T14:46:57.852Z,11.60
2022-12-20T14:49:35.958Z,11.60
2022-12-20T14:52:11.817Z,11.60
2022-12-20T14:55:07.592Z,11.60
2022-12-20T14:57:35.697Z,11.60
2022-12-20T15:00:29.192Z,11.50
2022-12-20T15:02:56.123Z,11.50
2022-12-20T15:05:35.825Z,11.50
2022-12-20T15:08:23.122Z,11.50
2022-12-20T15:11:10.695Z,11.50
2022-12-20T15:13:43.413Z,11.50
2022-12-20T15:16:22.982Z,11.50
2022-12-20T15:18:56.870Z,11.40
2022-12-20T15:21:37.355Z,11.40
2022-12-20T15:24:10.609Z,11.50
2022-12-20T15:26:37.733Z,11.50
2022-12-20T15:29:05.337Z,11.50
2022-12-20T15:31:37.280Z,11.50
2022-12-20T15:34:37.089Z,11.50
2022-12-20T15:37:05.054Z,11.50
2022-12-20T15:39:33.551Z,11.50
2022-12-20T15:42:04.719Z,11.50
2022-12-20T15:44:33.416Z,11.50
2022-12-20T15:47:00.872Z,11.50
2022-12-20T15:49:31.435Z,11.50
2022-12-20T15:51:58.954Z,11.50
2022-12-20T15:54:35.696Z,11.50
2022-12-20T15:57:07.706Z,11.50
2022-12-20T16:02:29.014Z,11.40
2022-12-20T16:04:56.331Z,11.40
2022-12-20T16:07:23.621Z,11.30
2022-12-20T16:09:50.817Z,11.40
2022-12-20T16:12:29.221Z,11.30
2022-12-20T16:14:56.947Z,11.30
2022-12-20T16:17:24.198Z,11.30
2022-12-20T16:19:51.163Z,11.30
2022-12-20T16:22:22.563Z,11.20
2022-12-20T16:24:50.663Z,11.30
2022-12-20T16:27:17.971Z,11.20
2022-12-20T16:29:45.461Z,11.20
2022-12-20T16:32:21.568Z,11.20
2022-12-20T16:34:52.813Z,11.10
2022-12-20T16:37:19.792Z,11.10
2022-12-20T16:39:47.036Z,11.10
2022-12-20T16:42:17.306Z,11.10
2022-12-20T16:44:45.736Z,11.10
2022-12-20T16:47:14.478Z,11.10
2022-12-20T16:49:51.905Z,11.10
2022-12-20T16:52:23.538Z,11.10
2022-12-20T16:54:51.508Z,11.10
2022-12-20T16:57:19.044Z,11.00
2022-12-20T16:59:45.944Z,11.00
2022-12-20T17:02:24.746Z,11.00
2022-12-20T17:04:52.048Z,11.00
2022-12-20T17:07:18.974Z,11.00
2022-12-20T17:12:30.605Z,11.00
2022-12-20T17:14:57.528Z,11.00
2022-12-20T17:17:24.665Z,11.00
2022-12-20T17:19:51.555Z,11.00
2022-12-20T17:22:25.033Z,11.00
2022-12-20T17:24:52.065Z,11.00
2022-12-20T17:27:19.028Z,11.00
2022-12-20T17:29:46.109Z,11.00
2022-12-20T17:32:23.953Z,11.00
2022-12-20T17:34:51.531Z,11.00
2022-12-20T17:37:18.718Z,11.00
2022-12-20T17:39:45.926Z,11.00
2022-12-20T17:42:14.017Z,11.00
2022-12-20T17:44:41.192Z,11.00
2022-12-20T17:47:08.591Z,11.00
2022-12-20T17:49:35.838Z,10.90
2022-12-20T17:52:02.980Z,10.90
2022-12-20T17:54:38.588Z,10.90
2022-12-20T17:57:13.038Z,10.90
2022-12-20T17:59:40.013Z,10.90
2022-12-20T18:02:33.277Z,10.90
2022-12-20T18:05:00.443Z,10.90
2022-12-20T18:07:28.306Z,10.80
2022-12-20T18:09:55.331Z,10.80
2022-12-20T18:12:22.296Z,10.80
2022-12-20T18:14:50.025Z,10.80
2022-12-20T18:17:17.504Z,10.70
2022-12-20T18:19:45.514Z,10.70
2022-12-20T18:22:13.765Z,10.80
2022-12-20T18:24:40.836Z,10.70
2022-12-20T18:27:07.798Z,10.70
2022-12-20T18:29:34.775Z,10.70
2022-12-20T18:32:01.824Z,10.70
2022-12-20T18:34:29.051Z,10.60
2022-12-20T18:36:55.977Z,10.70
2022-12-20T18:39:23.177Z,10.70
2022-12-20T18:41:50.042Z,10.60
2022-12-20T18:44:17.266Z,10.60
2022-12-20T18:46:44.203Z,10.60
2022-12-20T18:49:11.799Z,10.60
2022-12-20T18:51:38.730Z,10.60
2022-12-20T18:54:10.649Z,10.60
2022-12-20T18:56:39.530Z,10.60
2022-12-20T18:59:11.797Z,10.60
2022-12-20T19:01:41.048Z,10.60
2022-12-20T19:04:09.129Z,10.60
2022-12-20T19:06:37.753Z,10.50
2022-12-20T19:09:09.034Z,10.50
2022-12-20T19:11:37.101Z,10.50
2022-12-20T19:14:04.058Z,10.50
2022-12-20T19:16:34.434Z,10.50
2022-12-20T19:19:03.934Z,10.50
2022-12-20T19:21:34.876Z,10.50
2022-12-20T19:24:06.907Z,10.50
2022-12-20T19:26:36.899Z,10.50
2022-12-20T19:29:05.121Z,10.50
2022-12-20T19:31:36.166Z,10.50
2022-12-20T19:34:10.396Z,10.50
2022-12-20T19:36:46.387Z,10.60
2022-12-20T19:39:20.702Z,10.80
2022-12-20T19:42:13.987Z,10.90
2022-12-20T19:44:36.273Z,11.00
2022-12-20T19:47:06.559Z,11.10
2022-12-20T19:49:35.531Z,11.10
2022-12-20T19:52:02.949Z,11.20
2022-12-20T19:54:29.963Z,11.40
2022-12-20T19:56:58.406Z,11.60
2022-12-20T19:59:25.508Z,11.70
2022-12-20T20:01:52.490Z,11.50
2022-12-20T20:04:20.112Z,11.30
2022-12-20T20:06:47.008Z,11.10
2022-12-20T20:09:14.548Z,10.90
2022-12-20T20:11:41.409Z,10.70
2022-12-20T20:14:10.094Z,10.60
2022-12-20T20:16:37.911Z,10.60
2022-12-20T20:19:05.526Z,10.50
2022-12-20T20:21:34.887Z,10.50
2022-12-20T20:24:02.618Z,10.50
2022-12-20T20:26:31.803Z,10.40
2022-12-20T20:29:00.959Z,10.40
2022-12-20T20:31:28.078Z,10.40
2022-12-20T20:33:55.172Z,10.40
2022-12-20T20:36:23.474Z,10.40
2022-12-20T20:38:52.272Z,10.40
2022-12-20T20:41:19.228Z,10.40
2022-12-20T20:43:46.543Z,10.50
2022-12-20T20:46:16.128Z,10.40
2022-12-20T20:48:44.096Z,10.40
2022-12-20T20:51:11.457Z,10.40
2022-12-20T20:53:39.306Z,10.40
2022-12-20T20:56:07.853Z,10.40
2022-12-20T20:58:35.677Z,10.40
2022-12-20T21:01:04.878Z,10.40
2022-12-20T21:03:33.326Z,10.40
2022-12-20T21:06:37.140Z,10.40
2022-12-20T21:08:47.879Z,10.40
2022-12-20T21:11:15.089Z,10.40
2022-12-20T21:13:42.077Z,10.40
2022-12-20T21:16:20.310Z,10.30
2022-12-20T21:18:55.055Z,10.40
2022-12-20T21:21:23.274Z,10.30
2022-12-20T21:23:50.643Z,10.40
2022-12-20T21:26:19.116Z,10.40
2022-12-20T21:28:46.617Z,10.30
2022-12-20T21:31:17.179Z,10.20
2022-12-20T21:33:46.046Z,10.20
2022-12-20T21:36:17.193Z,10.20
2022-12-20T21:38:53.707Z,10.20
2022-12-20T21:41:23.320Z,10.20
2022-12-20T21:43:54.448Z,10.10
2022-12-20T21:46:21.525Z,10.10
2022-12-20T21:48:48.451Z,10.20
2022-12-20T21:51:22.347Z,10.20
2022-12-20T21:53:53.111Z,10.20
2022-12-20T21:56:21.896Z,10.20
2022-12-20T21:58:50.718Z,10.10
2022-12-20T22:01:22.081Z,10.10
2022-12-20T22:04:04.765Z,10.20
2022-12-20T22:06:32.480Z,10.20
2022-12-20T22:09:00.221Z,10.20
2022-12-20T22:11:27.733Z,10.10
2022-12-20T22:13:55.990Z,10.10
2022-12-20T22:16:26.057Z,10.10
2022-12-20T22:18:55.294Z,10.10
2022-12-20T22:21:33.818Z,10.10
2022-12-20T22:24:01.796Z,10.10
2022-12-20T22:26:31.763Z,10.10
2022-12-20T22:29:05.161Z,10.10
2022-12-20T22:31:33.101Z,10.10
2022-12-20T22:34:00.396Z,10.10
2022-12-20T22:36:28.029Z,10.10
2022-12-20T22:38:56.583Z,10.10
2022-12-20T22:41:28.606Z,10.10
2022-12-20T22:43:58.082Z,10.10
2022-12-20T22:46:25.494Z,10.10
2022-12-20T22:48:52.610Z,10.10
2022-12-20T22:51:22.027Z,10.10
2022-12-20T22:53:49.522Z,10.00
2022-12-20T22:56:19.467Z,10.10
2022-12-20T22:58:46.998Z,10.10
2022-12-20T23:01:16.156Z,10.10
2022-12-20T23:03:44.359Z,10.10
2022-12-20T23:06:15.693Z,10.10
2022-12-20T23:08:43.278Z,10.10
2022-12-20T23:11:38.014Z,10.10
2022-12-20T23:14:24.885Z,10.10
2022-12-20T23:16:53.528Z,10.10
2022-12-20T23:19:20.429Z,10.10
2022-12-20T23:22:05.831Z,10.10
2022-12-20T23:24:32.725Z,10.10
2022-12-20T23:26:59.886Z,10.10
2022-12-20T23:29:26.855Z,10.10
2022-12-20T23:31:53.881Z,10.10
2022-12-20T23:34:21.147Z,10.10
2022-12-20T23:36:48.396Z,10.10
2022-12-20T23:39:15.380Z,10.10
2022-12-20T23:41:42.245Z,10.00
2022-12-20T23:44:09.268Z,10.00
2022-12-20T23:46:36.121Z,10.00
2022-12-20T23:49:03.013Z,10.10
2022-12-20T23:51:30.097Z,10.00
2022-12-20T23:53:57.842Z,10.00
2022-12-20T23:56:25.194Z,10.10
2022-12-20T23:58:54.194Z,10.10
